createdAt,value
2017-09-24T00:00:38.189Z,995.05
2017-09-24T00:01:38.186Z,995.1
2017-09-24T00:02:38.184Z,995.09
2017-09-24T00:03:38.182Z,995.07
2017-09-24T00:04:38.182Z,995.11
2017-09-24T00:05:38.180Z,995.14
2017-09-24T00:06:38.176Z,995.12
2017-09-24T00:07:38.176Z,995.09
2017-09-24T00:08:38.172Z,995.08
2017-09-24T00:09:38.173Z,995.07
2017-09-24T00:10:38.172Z,995.06
2017-09-24T00:11:38.169Z,995.04
2017-09-24T00:12:38.173Z,995.05
2017-09-24T00:13:38.165Z,995.06
2017-09-24T00:14:38.161Z,995.03
2017-09-24T00:15:38.173Z,995.02
2017-09-24T00:16:38.163Z,995.03
2017-09-24T00:17:38.167Z,994.99
2017-09-24T00:18:38.165Z,994.99
2017-09-24T00:19:38.150Z,995
2017-09-24T00:20:38.147Z,995.01
2017-09-24T00:21:38.146Z,995
2017-09-24T00:22:38.144Z,995.02
2017-09-24T00:23:38.142Z,994.98
2017-09-24T00:24:38.144Z,994.98
2017-09-24T00:25:38.138Z,995
2017-09-24T00:26:38.136Z,994.98
2017-09-24T00:27:38.141Z,994.99
2017-09-24T00:28:38.144Z,994.96
2017-09-24T00:29:38.136Z,994.97
2017-09-24T00:30:38.136Z,994.98
2017-09-24T00:31:38.131Z,994.92
2017-09-24T00:32:38.129Z,994.91
2017-09-24T00:33:38.125Z,994.94
2017-09-24T00:34:38.126Z,994.93
2017-09-24T00:35:38.135Z,994.91
2017-09-24T00:36:38.122Z,994.92
2017-09-24T00:37:38.120Z,994.94
2017-09-24T00:38:38.115Z,994.89
2017-09-24T00:39:38.119Z,994.88
2017-09-24T00:40:38.118Z,994.89
2017-09-24T00:41:38.113Z,994.9
2017-09-24T00:42:38.119Z,994.88
2017-09-24T00:43:38.134Z,994.91
2017-09-24T00:44:38.111Z,994.9
2017-09-24T00:45:38.098Z,994.86
2017-09-24T00:46:38.096Z,994.9
2017-09-24T00:47:38.093Z,994.84
2017-09-24T00:48:38.094Z,994.89
2017-09-24T00:49:38.096Z,994.88
2017-09-24T00:50:38.087Z,994.88
2017-09-24T00:51:38.087Z,994.86
2017-09-24T00:52:38.082Z,994.86
2017-09-24T00:53:38.088Z,994.85
2017-09-24T00:54:38.096Z,994.77
2017-09-24T00:55:38.078Z,994.8
2017-09-24T00:56:38.079Z,994.75
2017-09-24T00:57:38.085Z,994.72
2017-09-24T00:58:38.084Z,994.79
2017-09-24T00:59:38.067Z,994.73
2017-09-24T01:00:38.081Z,994.69
2017-09-24T01:01:38.071Z,994.74
2017-09-24T01:02:38.072Z,994.74
2017-09-24T01:03:38.070Z,994.69
2017-09-24T01:04:38.076Z,994.7
2017-09-24T01:05:38.062Z,994.69
2017-09-24T01:06:38.071Z,994.68
2017-09-24T01:07:38.085Z,994.73
2017-09-24T01:08:38.048Z,994.72
2017-09-24T01:09:38.045Z,994.69
2017-09-24T01:10:38.044Z,994.7
2017-09-24T01:11:38.040Z,994.67
2017-09-24T01:12:38.041Z,994.7
2017-09-24T01:13:38.036Z,994.7
2017-09-24T01:14:38.034Z,994.71
2017-09-24T01:15:38.030Z,994.74
2017-09-24T01:16:38.029Z,994.71
2017-09-24T01:17:38.026Z,994.69
2017-09-24T01:18:38.023Z,994.72
2017-09-24T01:19:38.021Z,994.73
2017-09-24T01:20:38.018Z,994.72
2017-09-24T01:21:38.014Z,994.74
2017-09-24T01:22:38.013Z,994.7
2017-09-24T01:23:38.011Z,994.71
2017-09-24T01:24:38.009Z,994.72
2017-09-24T01:25:38.004Z,994.73
2017-09-24T01:26:38.006Z,994.74
2017-09-24T01:27:38.001Z,994.7
2017-09-24T01:28:37.999Z,994.77
2017-09-24T01:29:37.997Z,994.69
2017-09-24T01:30:40.648Z,994.72
2017-09-24T01:31:37.992Z,994.69
2017-09-24T01:32:37.989Z,994.69
2017-09-24T01:33:37.987Z,994.71
2017-09-24T01:34:37.987Z,994.66
2017-09-24T01:35:37.982Z,994.64
2017-09-24T01:36:37.980Z,994.65
2017-09-24T01:37:37.978Z,994.64
2017-09-24T01:38:37.976Z,994.62
2017-09-24T01:39:37.971Z,994.62
2017-09-24T01:40:37.969Z,994.62
2017-09-24T01:41:37.967Z,994.6
2017-09-24T01:42:37.965Z,994.64
2017-09-24T01:43:37.962Z,994.58
2017-09-24T01:44:37.959Z,994.6
2017-09-24T01:45:37.967Z,994.61
2017-09-24T01:46:37.955Z,994.64
2017-09-24T01:47:37.952Z,994.61
2017-09-24T01:48:37.950Z,994.6
2017-09-24T01:49:37.949Z,994.58
2017-09-24T01:50:37.945Z,994.57
2017-09-24T01:51:37.944Z,994.59
2017-09-24T01:52:37.940Z,994.59
2017-09-24T01:53:37.937Z,994.64
2017-09-24T01:54:37.934Z,994.57
2017-09-24T01:55:37.939Z,994.58
2017-09-24T01:56:37.929Z,994.59
2017-09-24T01:57:37.928Z,994.53
2017-09-24T01:58:37.924Z,994.57
2017-09-24T01:59:37.927Z,994.59
2017-09-24T02:00:37.919Z,994.62
2017-09-24T02:01:37.918Z,994.6
2017-09-24T02:02:37.914Z,994.59
2017-09-24T02:03:37.912Z,994.56
2017-09-24T02:04:37.908Z,994.59
2017-09-24T02:05:37.912Z,994.62
2017-09-24T02:06:37.903Z,994.65
2017-09-24T02:07:37.900Z,994.63
2017-09-24T02:08:37.899Z,994.65
2017-09-24T02:09:37.900Z,994.67
2017-09-24T02:10:37.894Z,994.69
2017-09-24T02:11:37.892Z,994.72
2017-09-24T02:12:37.888Z,994.68
2017-09-24T02:13:37.886Z,994.69
2017-09-24T02:14:37.901Z,994.74
2017-09-24T02:15:37.881Z,994.72
2017-09-24T02:16:37.879Z,994.75
2017-09-24T02:17:37.875Z,994.76
2017-09-24T02:18:37.873Z,994.76
2017-09-24T02:19:37.870Z,994.69
2017-09-24T02:20:37.871Z,994.71
2017-09-24T02:21:37.870Z,994.71
2017-09-24T02:22:37.867Z,994.72
2017-09-24T02:23:37.866Z,994.7
2017-09-24T02:24:37.861Z,994.73
2017-09-24T02:25:37.863Z,994.73
2017-09-24T02:26:37.862Z,994.78
2017-09-24T02:27:37.848Z,994.77
2017-09-24T02:28:37.851Z,994.78
2017-09-24T02:29:37.845Z,994.77
2017-09-24T02:30:37.840Z,994.8
2017-09-24T02:31:38.087Z,994.79
2017-09-24T02:32:37.837Z,994.83
2017-09-24T02:33:37.833Z,994.81
2017-09-24T02:34:37.829Z,994.79
2017-09-24T02:35:37.828Z,994.83
2017-09-24T02:36:37.836Z,994.84
2017-09-24T02:37:37.822Z,994.84
2017-09-24T02:38:37.819Z,994.83
2017-09-24T02:39:37.816Z,994.86
2017-09-24T02:40:37.818Z,994.87
2017-09-24T02:41:37.813Z,994.95
2017-09-24T02:42:37.810Z,994.92
2017-09-24T02:43:37.810Z,994.95
2017-09-24T02:44:37.804Z,994.96
2017-09-24T02:45:37.799Z,994.98
2017-09-24T02:46:37.797Z,994.94
2017-09-24T02:47:37.796Z,994.98
2017-09-24T02:48:37.795Z,994.96
2017-09-24T02:49:37.788Z,994.95
2017-09-24T02:50:37.786Z,994.98
2017-09-24T02:51:37.782Z,994.93
2017-09-24T02:52:37.779Z,994.91
2017-09-24T02:53:37.776Z,994.9
2017-09-24T02:54:37.778Z,994.88
2017-09-24T02:55:37.771Z,994.89
2017-09-24T02:56:37.767Z,994.88
2017-09-24T02:57:37.765Z,994.86
2017-09-24T02:58:37.762Z,994.85
2017-09-24T02:59:37.760Z,994.82
2017-09-24T03:00:37.756Z,994.86
2017-09-24T03:01:37.753Z,994.84
2017-09-24T03:02:37.753Z,994.83
2017-09-24T03:03:37.747Z,994.83
2017-09-24T03:04:37.744Z,994.81
2017-09-24T03:05:37.742Z,994.81
2017-09-24T03:06:37.740Z,994.82
2017-09-24T03:07:37.736Z,994.82
2017-09-24T03:08:37.737Z,994.77
2017-09-24T03:09:37.732Z,994.81
2017-09-24T03:10:37.729Z,994.78
2017-09-24T03:11:37.725Z,994.77
2017-09-24T03:12:37.722Z,994.79
2017-09-24T03:13:37.721Z,994.8
2017-09-24T03:14:37.721Z,994.83
2017-09-24T03:15:37.716Z,994.8
2017-09-24T03:16:37.713Z,994.86
2017-09-24T03:17:37.708Z,994.86
2017-09-24T03:18:37.706Z,994.88
2017-09-24T03:19:37.702Z,994.88
2017-09-24T03:20:37.700Z,994.88
2017-09-24T03:21:37.697Z,994.93
2017-09-24T03:22:37.693Z,994.88
2017-09-24T03:23:37.692Z,994.91
2017-09-24T03:24:37.690Z,994.91
2017-09-24T03:25:37.684Z,994.91
2017-09-24T03:26:37.708Z,994.95
2017-09-24T03:27:37.680Z,994.96
2017-09-24T03:28:37.677Z,994.96
2017-09-24T03:29:37.674Z,994.94
2017-09-24T03:30:37.673Z,994.96
2017-09-24T03:31:37.673Z,994.99
2017-09-24T03:32:37.668Z,994.94
2017-09-24T03:33:37.666Z,994.95
2017-09-24T03:34:37.664Z,994.91
2017-09-24T03:35:37.661Z,994.91
2017-09-24T03:36:37.660Z,994.88
2017-09-24T03:37:37.653Z,994.87
2017-09-24T03:38:37.652Z,994.87
2017-09-24T03:39:37.652Z,994.86
2017-09-24T03:40:37.642Z,994.91
2017-09-24T03:41:37.639Z,994.91
2017-09-24T03:42:37.636Z,994.92
2017-09-24T03:43:37.633Z,994.87
2017-09-24T03:44:37.629Z,994.88
2017-09-24T03:45:37.628Z,994.91
2017-09-24T03:46:37.624Z,994.96
2017-09-24T03:47:37.622Z,994.89
2017-09-24T03:48:37.621Z,994.92
2017-09-24T03:49:37.617Z,994.93
2017-09-24T03:50:37.613Z,994.94
2017-09-24T03:51:37.617Z,994.97
2017-09-24T03:52:37.607Z,994.9
2017-09-24T03:53:37.614Z,994.9
2017-09-24T03:54:37.601Z,994.92
2017-09-24T03:55:37.699Z,994.91
2017-09-24T03:56:37.610Z,994.93
2017-09-24T03:57:37.601Z,994.95
2017-09-24T03:58:37.589Z,994.92
2017-09-24T03:59:37.585Z,994.93
2017-09-24T04:00:37.583Z,994.9
2017-09-24T04:01:37.583Z,994.89
2017-09-24T04:02:38.628Z,994.95
2017-09-24T04:03:37.573Z,994.89
2017-09-24T04:04:37.571Z,994.9
2017-09-24T04:05:37.566Z,994.86
2017-09-24T04:06:37.563Z,994.87
2017-09-24T04:07:37.561Z,994.85
2017-09-24T04:08:37.558Z,994.84
2017-09-24T04:09:37.554Z,994.88
2017-09-24T04:10:37.551Z,994.84
2017-09-24T04:11:37.550Z,994.84
2017-09-24T04:12:37.546Z,994.8
2017-09-24T04:13:37.541Z,994.84
2017-09-24T04:14:37.541Z,994.82
2017-09-24T04:15:37.536Z,994.84
2017-09-24T04:16:37.532Z,994.87
2017-09-24T04:17:37.529Z,994.85
2017-09-24T04:18:37.531Z,994.89
2017-09-24T04:19:37.523Z,994.87
2017-09-24T04:20:37.519Z,994.89
2017-09-24T04:21:37.516Z,994.85
2017-09-24T04:22:37.514Z,994.85
2017-09-24T04:23:37.511Z,994.86
2017-09-24T04:24:37.507Z,994.88
2017-09-24T04:25:37.506Z,994.89
2017-09-24T04:26:37.504Z,994.9
2017-09-24T04:27:37.497Z,994.9
2017-09-24T04:28:37.494Z,994.88
2017-09-24T04:29:37.491Z,994.91
2017-09-24T04:30:37.518Z,994.88
2017-09-24T04:31:37.499Z,994.87
2017-09-24T04:32:37.482Z,994.87
2017-09-24T04:33:37.480Z,994.86
2017-09-24T04:34:37.476Z,994.91
2017-09-24T04:35:37.472Z,994.87
2017-09-24T04:36:37.469Z,994.89
2017-09-24T04:37:37.466Z,994.87
2017-09-24T04:38:37.463Z,994.85
2017-09-24T04:39:37.459Z,994.83
2017-09-24T04:40:37.464Z,994.84
2017-09-24T04:41:37.453Z,994.86
2017-09-24T04:42:37.449Z,994.85
2017-09-24T04:43:37.464Z,994.87
2017-09-24T04:44:37.444Z,994.88
2017-09-24T04:45:37.441Z,994.88
2017-09-24T04:46:37.436Z,994.86
2017-09-24T04:47:37.433Z,994.91
2017-09-24T04:48:37.430Z,994.88
2017-09-24T04:49:37.435Z,994.88
2017-09-24T04:50:37.425Z,994.92
2017-09-24T04:51:37.430Z,994.9
2017-09-24T04:52:37.418Z,994.91
2017-09-24T04:53:37.412Z,994.89
2017-09-24T04:54:37.413Z,994.93
2017-09-24T04:55:37.406Z,994.91
2017-09-24T04:56:37.404Z,994.93
2017-09-24T04:57:37.400Z,994.94
2017-09-24T04:58:37.397Z,994.92
2017-09-24T04:59:37.393Z,994.95
2017-09-24T05:00:37.388Z,994.95
2017-09-24T05:01:37.386Z,994.89
2017-09-24T05:02:37.382Z,994.93
2017-09-24T05:03:37.387Z,994.99
2017-09-24T05:04:37.375Z,994.95
2017-09-24T05:05:37.376Z,994.98
2017-09-24T05:06:37.370Z,995.05
2017-09-24T05:07:37.369Z,995.06
2017-09-24T05:08:38.165Z,995.05
2017-09-24T05:09:37.359Z,995.09
2017-09-24T05:10:37.356Z,995.12
2017-09-24T05:11:37.352Z,995.09
2017-09-24T05:12:37.349Z,995.14
2017-09-24T05:13:37.346Z,995.1
2017-09-24T05:14:37.344Z,995.16
2017-09-24T05:15:37.338Z,995.15
2017-09-24T05:16:37.335Z,995.13
2017-09-24T05:17:37.333Z,995.19
2017-09-24T05:18:37.329Z,995.16
2017-09-24T05:19:37.326Z,995.22
2017-09-24T05:20:37.322Z,995.19
2017-09-24T05:21:37.320Z,995.23
2017-09-24T05:22:37.315Z,995.18
2017-09-24T05:23:37.312Z,995.24
2017-09-24T05:24:37.310Z,995.33
2017-09-24T05:25:37.306Z,995.31
2017-09-24T05:26:37.301Z,995.34
2017-09-24T05:27:37.299Z,995.31
2017-09-24T05:28:37.296Z,995.37
2017-09-24T05:29:37.292Z,995.35
2017-09-24T05:30:37.288Z,995.38
2017-09-24T05:31:37.284Z,995.33
2017-09-24T05:32:37.284Z,995.37
2017-09-24T05:33:37.280Z,995.4
2017-09-24T05:34:37.275Z,995.41
2017-09-24T05:35:37.272Z,995.4
2017-09-24T05:36:37.269Z,995.41
2017-09-24T05:37:37.266Z,995.39
2017-09-24T05:38:37.260Z,995.37
2017-09-24T05:39:37.260Z,995.39
2017-09-24T05:40:37.255Z,995.36
2017-09-24T05:41:37.252Z,995.37
2017-09-24T05:42:37.249Z,995.41
2017-09-24T05:43:37.246Z,995.4
2017-09-24T05:44:37.243Z,995.39
2017-09-24T05:45:37.238Z,995.43
2017-09-24T05:46:37.236Z,995.44
2017-09-24T05:47:37.234Z,995.47
2017-09-24T05:48:37.229Z,995.49
2017-09-24T05:49:37.227Z,995.49
2017-09-24T05:50:37.223Z,995.5
2017-09-24T05:51:37.220Z,995.47
2017-09-24T05:52:37.220Z,995.46
2017-09-24T05:53:37.213Z,995.48
2017-09-24T05:54:37.211Z,995.48
2017-09-24T05:55:37.208Z,995.47
2017-09-24T05:56:37.208Z,995.48
2017-09-24T05:57:37.206Z,995.49
2017-09-24T05:58:37.207Z,995.49
2017-09-24T05:59:37.197Z,995.53
2017-09-24T06:00:37.195Z,995.52
2017-09-24T06:01:37.218Z,995.55
2017-09-24T06:02:37.187Z,995.5
2017-09-24T06:03:37.185Z,995.49
2017-09-24T06:04:37.182Z,995.53
2017-09-24T06:05:37.180Z,995.53
2017-09-24T06:06:37.177Z,995.55
2017-09-24T06:07:37.174Z,995.53
2017-09-24T06:08:37.178Z,995.5
2017-09-24T06:09:37.169Z,995.55
2017-09-24T06:10:37.165Z,995.53
2017-09-24T06:11:37.162Z,995.54
2017-09-24T06:12:37.160Z,995.57
2017-09-24T06:13:37.158Z,995.57
2017-09-24T06:14:37.154Z,995.54
2017-09-24T06:15:37.162Z,995.58
2017-09-24T06:16:37.155Z,995.61
2017-09-24T06:17:37.165Z,995.64
2017-09-24T06:18:37.146Z,995.63
2017-09-24T06:19:37.148Z,995.68
2017-09-24T06:20:37.149Z,995.68
2017-09-24T06:21:37.140Z,995.75
2017-09-24T06:22:37.138Z,995.72
2017-09-24T06:23:37.132Z,995.74
2017-09-24T06:24:37.130Z,995.72
2017-09-24T06:25:37.136Z,995.72
2017-09-24T06:26:37.127Z,995.77
2017-09-24T06:27:37.124Z,995.74
2017-09-24T06:28:37.124Z,995.75
2017-09-24T06:29:37.119Z,995.74
2017-09-24T06:30:37.117Z,995.76
2017-09-24T06:31:37.116Z,995.68
2017-09-24T06:32:37.114Z,995.7
2017-09-24T06:33:37.113Z,995.7
2017-09-24T06:34:38.713Z,995.74
2017-09-24T06:35:37.112Z,995.74
2017-09-24T06:36:37.108Z,995.76
2017-09-24T06:37:37.107Z,995.71
2017-09-24T06:38:37.111Z,995.77
2017-09-24T06:39:37.101Z,995.73
2017-09-24T06:40:37.098Z,995.7
2017-09-24T06:41:37.098Z,995.65
2017-09-24T06:42:37.095Z,995.69
2017-09-24T06:43:37.100Z,995.65
2017-09-24T06:44:37.105Z,995.66
2017-09-24T06:45:37.113Z,995.69
2017-09-24T06:46:37.089Z,995.68
2017-09-24T06:47:37.086Z,995.7
2017-09-24T06:48:37.134Z,995.7
2017-09-24T06:49:37.146Z,995.71
2017-09-24T06:50:37.085Z,995.75
2017-09-24T06:51:37.080Z,995.73
2017-09-24T06:52:37.088Z,995.76
2017-09-24T06:53:37.077Z,995.76
2017-09-24T06:54:37.077Z,995.77
2017-09-24T06:55:37.074Z,995.83
2017-09-24T06:56:37.072Z,995.85
2017-09-24T06:57:37.074Z,995.84
2017-09-24T06:58:37.068Z,995.79
2017-09-24T06:59:37.067Z,995.86
2017-09-24T07:00:37.066Z,995.87
2017-09-24T07:01:37.064Z,995.86
2017-09-24T07:02:37.062Z,995.84
2017-09-24T07:03:37.064Z,995.86
2017-09-24T07:04:37.058Z,995.89
2017-09-24T07:05:37.058Z,995.91
2017-09-24T07:06:37.063Z,995.87
2017-09-24T07:07:37.055Z,995.87
2017-09-24T07:08:37.054Z,995.89
2017-09-24T07:09:37.052Z,995.95
2017-09-24T07:10:37.054Z,995.97
2017-09-24T07:11:37.049Z,995.97
2017-09-24T07:12:37.047Z,995.96
2017-09-24T07:13:37.047Z,995.96
2017-09-24T07:14:37.044Z,995.94
2017-09-24T07:15:37.042Z,995.96
2017-09-24T07:16:37.041Z,995.99
2017-09-24T07:17:37.040Z,995.96
2017-09-24T07:18:37.038Z,996.01
2017-09-24T07:19:37.037Z,996.04
2017-09-24T07:20:37.035Z,996.07
2017-09-24T07:21:37.033Z,996.06
2017-09-24T07:22:37.033Z,996.08
2017-09-24T07:23:37.031Z,996.07
2017-09-24T07:24:37.029Z,996.1
2017-09-24T07:25:37.028Z,996.07
2017-09-24T07:26:37.027Z,996.11
2017-09-24T07:27:37.028Z,996.1
2017-09-24T07:28:37.025Z,996.14
2017-09-24T07:29:37.023Z,996.12
2017-09-24T07:30:37.022Z,996.15
2017-09-24T07:31:37.021Z,996.18
2017-09-24T07:32:37.021Z,996.2
2017-09-24T07:33:37.019Z,996.21
2017-09-24T07:34:37.017Z,996.23
2017-09-24T07:35:37.218Z,996.23
2017-09-24T07:36:37.016Z,996.24
2017-09-24T07:37:37.014Z,996.24
2017-09-24T07:38:37.013Z,996.27
2017-09-24T07:39:37.012Z,996.28
2017-09-24T07:40:37.014Z,996.24
2017-09-24T07:41:37.011Z,996.24
2017-09-24T07:42:37.012Z,996.19
2017-09-24T07:43:37.009Z,996.21
2017-09-24T07:44:37.009Z,996.21
2017-09-24T07:45:37.007Z,996.23
2017-09-24T07:46:37.009Z,996.18
2017-09-24T07:47:37.007Z,996.19
2017-09-24T07:48:37.006Z,996.19
2017-09-24T07:49:37.006Z,996.17
2017-09-24T07:50:38.108Z,996.21
2017-09-24T07:51:37.005Z,996.16
2017-09-24T07:52:37.005Z,996.2
2017-09-24T07:53:37.005Z,996.18
2017-09-24T07:54:37.005Z,996.21
2017-09-24T07:55:37.006Z,996.2
2017-09-24T07:56:37.006Z,996.18
2017-09-24T07:57:37.006Z,996.21
2017-09-24T07:58:37.006Z,996.18
2017-09-24T07:59:37.005Z,996.2
2017-09-24T08:00:37.005Z,996.15
2017-09-24T08:01:37.008Z,996.18
2017-09-24T08:02:37.010Z,996.17
2017-09-24T08:03:37.007Z,996.11
2017-09-24T08:04:37.011Z,996.11
2017-09-24T08:05:37.010Z,996.14
2017-09-24T08:06:37.010Z,996.13
2017-09-24T08:07:37.025Z,996.13
2017-09-24T08:08:37.010Z,996.16
2017-09-24T08:09:37.012Z,996.13
2017-09-24T08:10:37.015Z,996.18
2017-09-24T08:11:37.014Z,996.16
2017-09-24T08:12:37.015Z,996.18
2017-09-24T08:13:37.023Z,996.2
2017-09-24T08:14:37.019Z,996.17
2017-09-24T08:15:37.018Z,996.19
2017-09-24T08:16:37.022Z,996.19
2017-09-24T08:17:37.021Z,996.19
2017-09-24T08:18:37.022Z,996.2
2017-09-24T08:19:37.023Z,996.16
2017-09-24T08:20:37.023Z,996.15
2017-09-24T08:21:37.028Z,996.19
2017-09-24T08:22:37.025Z,996.19
2017-09-24T08:23:37.027Z,996.2
2017-09-24T08:24:37.027Z,996.18
2017-09-24T08:25:37.027Z,996.2
2017-09-24T08:26:37.029Z,996.24
2017-09-24T08:27:37.029Z,996.23
2017-09-24T08:28:37.032Z,996.2
2017-09-24T08:29:37.031Z,996.21
2017-09-24T08:30:37.035Z,996.18
2017-09-24T08:31:37.037Z,996.2
2017-09-24T08:32:37.036Z,996.2
2017-09-24T08:33:37.035Z,996.2
2017-09-24T08:34:37.035Z,996.23
2017-09-24T08:35:37.037Z,996.22
2017-09-24T08:36:37.037Z,996.26
2017-09-24T08:37:37.039Z,996.24
2017-09-24T08:38:37.039Z,996.19
2017-09-24T08:39:37.037Z,996.19
2017-09-24T08:40:37.041Z,996.15
2017-09-24T08:41:37.042Z,996.17
2017-09-24T08:42:37.042Z,996.15
2017-09-24T08:43:37.041Z,996.16
2017-09-24T08:44:37.043Z,996.14
2017-09-24T08:45:37.043Z,996.16
2017-09-24T08:46:37.048Z,996.16
2017-09-24T08:47:37.045Z,996.19
2017-09-24T08:48:37.044Z,996.18
2017-09-24T08:49:37.045Z,996.16
2017-09-24T08:50:37.051Z,996.14
2017-09-24T08:51:37.046Z,996.18
2017-09-24T08:52:37.072Z,996.15
2017-09-24T08:53:37.047Z,996.16
2017-09-24T08:54:37.050Z,996.18
2017-09-24T08:55:37.050Z,996.14
2017-09-24T08:56:37.048Z,996.12
2017-09-24T08:57:37.050Z,996.11
2017-09-24T08:58:37.050Z,996.15
2017-09-24T08:59:37.058Z,996.12
2017-09-24T09:00:37.051Z,996.11
2017-09-24T09:01:37.200Z,996.12
2017-09-24T09:02:37.263Z,996.13
2017-09-24T09:03:37.055Z,996.13
2017-09-24T09:04:37.054Z,996.16
2017-09-24T09:05:37.055Z,996.09
2017-09-24T09:06:37.057Z,996.11
2017-09-24T09:07:37.057Z,996.08
2017-09-24T09:08:37.058Z,996.09
2017-09-24T09:09:37.059Z,996.12
2017-09-24T09:10:37.062Z,996.13
2017-09-24T09:11:37.061Z,996.17
2017-09-24T09:12:37.061Z,996.16
2017-09-24T09:13:37.067Z,996.11
2017-09-24T09:14:37.069Z,996.13
2017-09-24T09:15:37.064Z,996.16
2017-09-24T09:16:37.066Z,996.12
2017-09-24T09:17:37.068Z,996.08
2017-09-24T09:18:37.070Z,996.08
2017-09-24T09:19:37.070Z,996.09
2017-09-24T09:20:37.071Z,996.07
2017-09-24T09:21:37.072Z,996.08
2017-09-24T09:22:37.073Z,996.09
2017-09-24T09:23:37.074Z,996.06
2017-09-24T09:24:37.076Z,996.07
2017-09-24T09:25:37.077Z,996.08
2017-09-24T09:26:37.079Z,996.12
2017-09-24T09:27:37.080Z,996.12
2017-09-24T09:28:37.082Z,996.06
2017-09-24T09:29:37.084Z,996.12
2017-09-24T09:30:37.084Z,996.09
2017-09-24T09:31:37.093Z,996.11
2017-09-24T09:32:37.087Z,996.08
2017-09-24T09:33:37.125Z,996.09
2017-09-24T09:34:37.096Z,996.08
2017-09-24T09:35:37.098Z,996.04
2017-09-24T09:36:38.397Z,996.02
2017-09-24T09:37:37.098Z,996.06
2017-09-24T09:38:37.098Z,996.04
2017-09-24T09:39:37.096Z,996.06
2017-09-24T09:40:37.104Z,996.04
2017-09-24T09:41:37.097Z,996
2017-09-24T09:42:37.100Z,996.02
2017-09-24T09:43:37.102Z,996.02
2017-09-24T09:44:37.103Z,995.97
2017-09-24T09:45:37.103Z,995.99
2017-09-24T09:46:37.103Z,995.95
2017-09-24T09:47:37.105Z,995.94
2017-09-24T09:48:37.106Z,995.95
2017-09-24T09:49:37.107Z,995.99
2017-09-24T09:50:37.108Z,995.99
2017-09-24T09:51:37.110Z,995.95
2017-09-24T09:52:37.113Z,995.89
2017-09-24T09:53:37.114Z,995.91
2017-09-24T09:54:37.115Z,995.88
2017-09-24T09:55:37.117Z,995.88
2017-09-24T09:56:37.117Z,995.81
2017-09-24T09:57:37.119Z,995.8
2017-09-24T09:58:37.120Z,995.81
2017-09-24T09:59:37.122Z,995.84
2017-09-24T10:00:37.124Z,995.82
2017-09-24T10:01:37.126Z,995.78
2017-09-24T10:02:37.130Z,995.75
2017-09-24T10:03:37.131Z,995.73
2017-09-24T10:04:37.131Z,995.73
2017-09-24T10:05:37.134Z,995.73
2017-09-24T10:06:37.138Z,995.72
2017-09-24T10:07:37.139Z,995.71
2017-09-24T10:08:37.139Z,995.67
2017-09-24T10:09:37.141Z,995.69
2017-09-24T10:10:37.146Z,995.7
2017-09-24T10:11:37.144Z,995.66
2017-09-24T10:12:37.147Z,995.68
2017-09-24T10:13:37.150Z,995.69
2017-09-24T10:14:37.150Z,995.67
2017-09-24T10:15:37.205Z,995.68
2017-09-24T10:16:37.155Z,995.66
2017-09-24T10:17:37.157Z,995.66
2017-09-24T10:18:37.162Z,995.64
2017-09-24T10:19:37.161Z,995.66
2017-09-24T10:20:37.163Z,995.61
2017-09-24T10:21:37.165Z,995.64
2017-09-24T10:22:37.170Z,995.68
2017-09-24T10:23:37.170Z,995.61
2017-09-24T10:24:37.170Z,995.63
2017-09-24T10:25:37.173Z,995.6
2017-09-24T10:26:37.177Z,995.62
2017-09-24T10:27:37.195Z,995.61
2017-09-24T10:28:37.181Z,995.57
2017-09-24T10:29:37.182Z,995.56
2017-09-24T10:30:37.187Z,995.54
2017-09-24T10:31:37.188Z,995.56
2017-09-24T10:32:37.210Z,995.56
2017-09-24T10:33:37.194Z,995.6
2017-09-24T10:34:37.194Z,995.58
2017-09-24T10:35:37.196Z,995.56
2017-09-24T10:36:37.199Z,995.58
2017-09-24T10:37:37.213Z,995.55
2017-09-24T10:38:37.203Z,995.54
2017-09-24T10:39:37.212Z,995.47
2017-09-24T10:40:37.210Z,995.55
2017-09-24T10:41:37.211Z,995.52
2017-09-24T10:42:37.236Z,995.5
2017-09-24T10:43:37.241Z,995.49
2017-09-24T10:44:37.239Z,995.46
2017-09-24T10:45:37.225Z,995.48
2017-09-24T10:46:37.238Z,995.44
2017-09-24T10:47:37.228Z,995.46
2017-09-24T10:48:37.239Z,995.46
2017-09-24T10:49:37.230Z,995.46
2017-09-24T10:50:37.240Z,995.39
2017-09-24T10:51:37.239Z,995.39
2017-09-24T10:52:37.292Z,995.37
2017-09-24T10:53:37.343Z,995.36
2017-09-24T10:54:37.245Z,995.41
2017-09-24T10:55:37.270Z,995.37
2017-09-24T10:56:37.260Z,995.39
2017-09-24T10:57:37.252Z,995.36
2017-09-24T10:58:37.255Z,995.36
2017-09-24T10:59:37.301Z,995.41
2017-09-24T11:00:37.263Z,995.38
2017-09-24T11:01:37.266Z,995.38
2017-09-24T11:02:37.294Z,995.33
2017-09-24T11:03:37.281Z,995.34
2017-09-24T11:04:37.273Z,995.33
2017-09-24T11:05:37.272Z,995.34
2017-09-24T11:06:37.281Z,995.31
2017-09-24T11:07:37.895Z,995.34
2017-09-24T11:08:37.287Z,995.34
2017-09-24T11:09:37.298Z,995.37
2017-09-24T11:10:37.288Z,995.35
2017-09-24T11:11:37.287Z,995.38
2017-09-24T11:12:37.290Z,995.36
2017-09-24T11:13:37.295Z,995.34
2017-09-24T11:14:37.301Z,995.34
2017-09-24T11:15:37.302Z,995.3
2017-09-24T11:16:37.301Z,995.28
2017-09-24T11:17:37.304Z,995.29
2017-09-24T11:18:37.306Z,995.26
2017-09-24T11:19:37.309Z,995.26
2017-09-24T11:20:37.312Z,995.26
2017-09-24T11:21:37.313Z,995.26
2017-09-24T11:22:37.318Z,995.21
2017-09-24T11:23:37.321Z,995.21
2017-09-24T11:24:37.323Z,995.21
2017-09-24T11:25:37.326Z,995.19
2017-09-24T11:26:37.334Z,995.18
2017-09-24T11:27:37.332Z,995.22
2017-09-24T11:28:37.334Z,995.15
2017-09-24T11:29:37.337Z,995.16
2017-09-24T11:30:37.342Z,995.12
2017-09-24T11:31:37.343Z,995.09
2017-09-24T11:32:37.346Z,995.1
2017-09-24T11:33:37.351Z,995.12
2017-09-24T11:34:37.355Z,995.02
2017-09-24T11:35:37.356Z,995.07
2017-09-24T11:36:37.445Z,995
2017-09-24T11:37:37.371Z,995.02
2017-09-24T11:38:37.368Z,995.02
2017-09-24T11:39:37.368Z,995
2017-09-24T11:40:37.372Z,995.02
2017-09-24T11:41:37.376Z,995.04
2017-09-24T11:42:37.378Z,995.04
2017-09-24T11:43:37.382Z,995.07
2017-09-24T11:44:37.385Z,995.06
2017-09-24T11:45:37.388Z,995.07
2017-09-24T11:46:37.391Z,995.07
2017-09-24T11:47:37.395Z,995.09
2017-09-24T11:48:37.397Z,995.13
2017-09-24T11:49:37.428Z,995.09
2017-09-24T11:50:37.403Z,994.99
2017-09-24T11:51:37.406Z,995.02
2017-09-24T11:52:37.410Z,994.97
2017-09-24T11:53:37.412Z,994.94
2017-09-24T11:54:37.416Z,995.02
2017-09-24T11:55:37.419Z,994.97
2017-09-24T11:56:37.423Z,994.94
2017-09-24T11:57:37.426Z,994.97
2017-09-24T11:58:37.435Z,994.97
2017-09-24T11:59:37.475Z,994.96
2017-09-24T12:00:37.438Z,994.95
2017-09-24T12:01:37.439Z,994.96
2017-09-24T12:02:37.441Z,994.98
2017-09-24T12:03:37.445Z,994.94
2017-09-24T12:04:37.448Z,994.96
2017-09-24T12:05:37.450Z,994.98
2017-09-24T12:06:37.467Z,994.95
2017-09-24T12:07:37.458Z,995
2017-09-24T12:08:37.463Z,995.03
2017-09-24T12:09:37.463Z,994.99
2017-09-24T12:10:37.466Z,995.02
2017-09-24T12:11:37.470Z,995.02
2017-09-24T12:12:37.473Z,995.01
2017-09-24T12:13:37.477Z,995.02
2017-09-24T12:14:37.481Z,995.01
2017-09-24T12:15:37.483Z,994.91
2017-09-24T12:16:37.486Z,994.89
2017-09-24T12:17:37.494Z,994.87
2017-09-24T12:18:37.494Z,994.86
2017-09-24T12:19:37.497Z,994.88
2017-09-24T12:20:37.501Z,994.82
2017-09-24T12:21:37.504Z,994.87
2017-09-24T12:22:37.510Z,994.85
2017-09-24T12:23:37.511Z,994.85
2017-09-24T12:24:37.514Z,994.88
2017-09-24T12:25:37.528Z,994.87
2017-09-24T12:26:37.530Z,994.9
2017-09-24T12:27:37.532Z,994.92
2017-09-24T12:28:37.528Z,994.93
2017-09-24T12:29:37.530Z,994.9
2017-09-24T12:30:37.532Z,994.92
2017-09-24T12:31:37.536Z,994.88